Flight Track Log - Related Links

Times and Time Zones

All times are in EDT time to prevent confusion due to time zone crossing. See the GJS3618 flight status page for this flight to view local times or setup timezone preferences in your user account.

Time Position Orientation Groundspeed Altitude Reporting Facility
EDT Latitude Longitude Course Direction KTS MPH feet Rate Location/Type
Sat 07:43:20 AM 41.2931 -95.8919 270° West 151 174 1,400  Level Minneapolis Center
Sat 07:43:32 AM 41.2883 -95.8869 141° Southeast 153 176 1,700 1,823 Climbing Minneapolis Center
Sat 07:44:39 AM 41.2481 -95.9111 204° Southwest 174 200 3,800 1,938 Climbing Minneapolis Center
Sat 07:45:08 AM 41.2483 -95.9389 271° West 178 205 4,800 2,066 Climbing Minneapolis Center
Sat 07:45:40 AM 41.2508 -95.9856 274° West 232 267 5,900 2,000 Climbing Minneapolis Center
Sat 07:46:00 AM 41.2391 -96.4039 278° West  Level Estimated
Sat 07:46:08 AM 41.2519 -96.0075 274° West 214 246 6,800  Level Minneapolis Center
Sat 07:47:00 AM 41.2228 -96.5312 270° West  Level Estimated
Sat 07:47:09 AM 41.2564 -96.1011 274° West 243 280 9,700  Level Minneapolis Center
Sat 07:48:00 AM 41.2063 -96.6584 270° West  Level Estimated
Sat 07:48:09 AM 41.2478 -96.1994 263° West 257 296 12,100  Level Minneapolis Center
Sat 07:49:10 AM 41.2378 -96.3142 263° West 296 341 13,800 1,869 Climbing Minneapolis Center
Sat 07:50:11 AM 41.2267 -96.4378 263° West 326 375 15,900 2,380 Climbing Minneapolis Center
Sat 07:51:11 AM 41.2131 -96.5906 263° West 343 395 18,600 2,281 Climbing Minneapolis Center
Sat 07:52:12 AM 41.2014 -96.7200 263° West 349 402 20,500 1,820 Climbing Minneapolis Center
Sat 07:53:13 AM 41.1906 -96.8511 264° West 355 409 22,300 1,686 Climbing Minneapolis Center
Sat 07:54:13 AM 41.1783 -96.9856 263° West 364 419 23,900 1,537 Climbing Minneapolis Center
Sat 07:55:14 AM 41.1661 -97.1225 263° West 372 428 25,400 1,426 Climbing Minneapolis Center
Sat 07:56:15 AM 41.1539 -97.2606 263° West 377 434 26,800 1,339 Climbing Minneapolis Center
Sat 07:57:15 AM 41.1414 -97.4069 264° West 384 442 28,100 1,240 Climbing Minneapolis Center
Sat 07:58:16 AM 41.1272 -97.5500 263° West 390 449 29,300 1,082 Climbing Minneapolis Center
Sat 07:59:17 AM 41.1128 -97.6944 262° West 393 452 30,300 1,041 Climbing Minneapolis Center
Sat 08:00:17 AM 41.0983 -97.8422 263° West 399 459 31,400 1,041 Climbing Minneapolis Center
Sat 08:01:18 AM 41.0839 -97.9897 263° West 403 464 32,400 1,082 Climbing Minneapolis Center
Sat 08:02:19 AM 41.0689 -98.1361 262° West 402 463 33,600 1,190 Climbing Minneapolis Center
Sat 08:03:19 AM 41.0550 -98.2817 263° West 398 458 34,800 992 Climbing Minneapolis Center
Sat 08:04:20 AM 41.0406 -98.4258 262° West 394 453 35,600 590 Climbing Minneapolis Center
Sat 08:05:21 AM 41.0269 -98.5639 263° West 397 457 36,000 198 Climbing Minneapolis Center
Sat 08:06:21 AM 41.0100 -98.7114 261° West 403 464 36,000  Level Minneapolis Center
Sat 08:07:22 AM 40.9947 -98.8611 262° West 409 471 36,000  Level Minneapolis Center
Sat 08:08:23 AM 40.9786 -99.0061 262° West 402 463 36,000  Level Minneapolis Center
Sat 08:09:24 AM 40.9606 -99.1683 262° West 397 457 36,000  Level Minneapolis Center
Sat 08:10:24 AM 40.9453 -99.3128 262° West 396 456 36,000  Level Minneapolis Center
Sat 08:11:25 AM 40.9289 -99.4583 262° West 398 458 36,000  Level Minneapolis Center
Sat 08:12:26 AM 40.9128 -99.6044 262° West 399 459 36,000  Level Minneapolis Center
Sat 08:13:27 AM 40.8961 -99.7503 261° West 401 461 36,000  Level Minneapolis Center
Sat 08:14:28 AM 40.8794 -99.8925 261° West 395 455 36,000  Level Minneapolis Center
Sat 08:15:28 AM 40.8633 -100.0303 261° West 385 443 36,000  Level Minneapolis Center
Sat 08:16:29 AM 40.8472 -100.1692 261° West 383 441 36,000  Level Minneapolis Center
Sat 08:17:30 AM 40.8300 -100.3114 261° West 387 445 36,000  Level Minneapolis Center
Sat 08:18:31 AM 40.8450 -100.4544 278° West 398 458 36,000  Level Minneapolis Center
Sat 08:19:32 AM 40.8736 -100.5944 285° West 398 458 36,000  Level Minneapolis Center
Sat 08:20:46 AM 40.9067 -100.7722 284° West 388 447 36,000  Level Denver Center
Sat 08:21:46 AM 40.9333 -100.9014 285° West 385 443 36,000  Level Denver Center
Sat 08:22:47 AM 40.9219 -101.0581 265° West 392 451 36,000  Level Denver Center
Sat 08:23:47 AM 40.8881 -101.1906 251° West 399 459 36,000  Level Denver Center
Sat 08:24:47 AM 40.8556 -101.3242 252° West 399 459 36,000  Level Denver Center
Sat 08:25:48 AM 40.8161 -101.4781 251° West 398 458 36,000  Level Denver Center
Sat 08:26:48 AM 40.7822 -101.6122 252° West 403 464 36,000  Level Denver Center
Sat 08:27:48 AM 40.7472 -101.7467 251° West 404 465 36,000  Level Denver Center
Sat 08:28:49 AM 40.7067 -101.9050 251° West 408 470 36,000  Level Denver Center
Sat 08:29:49 AM 40.6717 -102.0403 251° West 409 471 36,000  Level Denver Center
Sat 08:30:50 AM 40.6367 -102.1767 251° West 411 473 36,000  Level Denver Center
Sat 08:31:50 AM 40.5936 -102.3367 251° West 415 478 36,000 -50 Level Denver Center
Sat 08:32:50 AM 40.5586 -102.4731 251° West 413 475 35,900 -694 Descending Denver Center
Sat 08:33:51 AM 40.5214 -102.6089 250° West 413 475 34,600 -1,736 Descending Denver Center
Sat 08:34:51 AM 40.4789 -102.7664 251° West 416 479 32,400 -2,083 Descending Denver Center
Sat 08:35:52 AM 40.4422 -102.9053 251° West 405 466 30,400 -1,835 Descending Denver Center
Sat 08:36:52 AM 40.4061 -103.0394 251° West 393 452 28,700 -1,686 Descending Denver Center
Sat 08:37:53 AM 40.3708 -103.1681 250° West 378 435 27,000 -1,686 Descending Denver Center
Sat 08:38:53 AM 40.3361 -103.2975 251° West 377 434 25,300 -1,650 Descending Denver Center
Sat 08:39:53 AM 40.3017 -103.4233 250° West 369 425 23,700 -1,537 Descending Denver Center
Sat 08:40:54 AM 40.2678 -103.5450 250° West 360 414 22,200 -1,488 Descending Denver Center
Sat 08:41:54 AM 40.2361 -103.6678 251° West 357 411 20,700 -1,537 Descending Denver Center
Sat 08:42:55 AM 40.2139 -103.7853 256° West 332 382 19,100 -1,488 Descending Denver Center
Sat 08:43:55 AM 40.2056 -103.8953 264° West 306 352 17,700 -1,388 Descending Denver Center
Sat 08:44:56 AM 40.2139 -104.0014 276° West 293 337 16,300 -1,339 Descending Denver Center
Sat 08:45:56 AM 40.2242 -104.1064 277° West 291 335 15,000 -1,289 Descending Denver Center
Sat 08:46:57 AM 40.2339 -104.2083 277° West 285 328 13,700 -1,289 Descending Denver Center
Sat 08:47:57 AM 40.2425 -104.3064 277° West 275 316 12,400 -1,289 Descending Denver Center
Sat 08:48:58 AM 40.2061 -104.4061 244° Southwest 284 327 11,100 -1,230 Descending Denver Center
Sat 08:49:59 AM 40.1700 -104.4972 243° Southwest 283 326 9,900 -1,091 Descending Denver Center
Sat 08:50:59 AM 40.1322 -104.5864 241° Southwest 282 325 8,900 -750 Descending Denver Center
Sat 08:51:35 AM 40.1000 -104.6167 216° Southwest 250 288 8,700 -563 Descending Denver TRACON
Sat 08:52:35 AM 40.0333 -104.6500 201° Southwest 211 243 8,000 -750 Descending Denver TRACON
Sat 08:53:35 AM 39.9833 -104.6833 207° Southwest 203 234 7,200 -900 Descending Denver TRACON
Sat 08:54:35 AM 39.9333 -104.6833 180° South 155 178 6,200 -735 Descending Denver TRACON
Sat 08:56:02 AM 39.8858 -104.6872 184° South 135 155 5,400 -552 Descending Denver Center

Login

Don't have an account? Register now (free) for customized features, flight alerts, and more!